Time;durP1;ratioP1;P1;durP2;ratioP2;P2;SDS_P1;SDS_P2;PMS_P1;PMS_P2;Temp;Humidity;BMP_temperature;BMP_pressure;BME280_temperature;BME280_humidity;BME280_pressure;Samples;Min_cycle;Max_cycle;Signal;HPM_P1;HPM_P2
2024/01/07 00:02:03;;;;;;;6.27;5.97;;;-1.00;66.50;;;;;;6310132;28;20257;-82
2024/01/07 00:05:06;;;;;;;6.33;5.83;;;-1.00;65.90;;;;;;6308302;28;20304;-81
2024/01/07 00:08:10;;;;;;;5.83;5.33;;;-1.00;65.90;;;;;;6291116;28;20849;-76
2024/01/07 00:11:13;;;;;;;6.30;5.80;;;-1.10;65.90;;;;;;6306784;28;20511;-81
2024/01/07 00:14:18;;;;;;;5.80;5.50;;;-1.10;66.40;;;;;;6307271;28;20232;-82
2024/01/07 00:17:21;;;;;;;6.23;5.73;;;-1.10;66.60;;;;;;6302650;28;20765;-79
2024/01/07 00:20:24;;;;;;;6.70;6.20;;;-1.10;66.50;;;;;;6319999;28;20350;-82
2024/01/07 00:23:27;;;;;;;6.47;5.97;;;-1.10;66.20;;;;;;6299740;28;20251;-83
2024/01/07 00:26:30;;;;;;;6.40;5.90;;;-1.10;66.50;;;;;;6305918;28;20241;-82
2024/01/07 00:29:35;;;;;;;8.03;5.90;;;-1.10;66.60;;;;;;6305251;28;20774;-81
2024/01/07 00:32:38;;;;;;;7.90;7.20;;;-1.10;66.60;;;;;;6312101;28;20267;-82
2024/01/07 00:35:41;;;;;;;6.77;6.30;;;-1.30;66.90;;;;;;6313735;28;20271;-82
2024/01/07 00:38:45;;;;;;;6.47;5.97;;;-1.30;67.00;;;;;;6304863;28;20318;-79
2024/01/07 00:41:48;;;;;;;7.47;6.77;;;-1.30;66.60;;;;;;6309063;28;20275;-80
2024/01/07 00:44:52;;;;;;;7.43;6.77;;;-1.30;66.40;;;;;;6306484;28;20229;-79
2024/01/07 00:47:55;;;;;;;6.50;6.00;;;-1.30;66.30;;;;;;6310284;28;20229;-81
2024/01/07 00:50:59;;;;;;;6.20;5.80;;;-1.30;66.10;;;;;;6290226;28;20739;-78
2024/01/07 00:54:02;;;;;;;5.30;5.00;;;-1.30;65.60;;;;;;6302500;28;20236;-80
2024/01/07 00:57:06;;;;;;;6.03;5.67;;;-1.40;65.10;;;;;;6304275;28;20699;-82
2024/01/07 01:00:12;;;;;;;6.40;5.93;;;-1.40;65.40;;;;;;6293908;28;20322;-80
2024/01/07 01:03:15;;;;;;;5.80;5.47;;;-1.30;65.40;;;;;;6299846;28;20229;-81
2024/01/07 01:06:18;;;;;;;6.23;5.57;;;-1.40;65.60;;;;;;6303909;28;20236;-82
2024/01/07 01:09:21;;;;;;;5.40;5.00;;;-1.50;65.30;;;;;;6289819;28;20233;-83
2024/01/07 01:12:25;;;;;;;4.80;4.40;;;-1.50;64.90;;;;;;6293599;28;20233;-82
2024/01/07 01:15:29;;;;;;;5.13;4.83;;;-1.50;64.50;;;;;;6297469;28;20501;-84
2024/01/07 01:18:32;;;;;;;5.00;4.77;;;-1.50;64.20;;;;;;6303294;28;20292;-82
2024/01/07 01:21:36;;;;;;;5.33;5.00;;;-1.50;64.00;;;;;;6306207;28;20716;-80
2024/01/07 01:24:39;;;;;;;4.70;4.60;;;-1.50;64.30;;;;;;6305334;28;20235;-79
2024/01/07 01:27:42;;;;;;;4.60;4.40;;;-1.50;64.00;;;;;;6303929;28;20233;-82
2024/01/07 01:30:47;;;;;;;5.50;5.10;;;-1.60;64.00;;;;;;6309006;28;20236;-82
2024/01/07 01:33:50;;;;;;;5.47;5.17;;;-1.50;64.30;;;;;;6295313;28;20250;-81
2024/01/07 01:36:53;;;;;;;7.30;4.80;;;-1.60;64.00;;;;;;6288299;28;20233;-78
2024/01/07 01:39:57;;;;;;;5.00;4.80;;;-1.70;63.90;;;;;;6302582;28;20920;-80
2024/01/07 01:43:00;;;;;;;5.37;5.07;;;-1.60;63.90;;;;;;6313128;28;20228;-82
2024/01/07 01:46:05;;;;;;;5.07;4.87;;;-1.60;63.40;;;;;;6312991;28;20232;-82
2024/01/07 01:49:09;;;;;;;5.50;5.27;;;-1.70;63.70;;;;;;6313356;28;20235;-80
2024/01/07 01:52:15;;;;;;;7.27;5.70;;;-1.70;63.90;;;;;;6299532;28;20228;-82
2024/01/07 01:55:19;;;;;;;7.73;6.20;;;-1.70;64.10;;;;;;6312188;28;20251;-83
2024/01/07 01:58:24;;;;;;;6.10;5.70;;;-1.70;63.70;;;;;;6297720;28;20241;-83
2024/01/07 02:01:29;;;;;;;5.93;5.60;;;-1.80;63.90;;;;;;6311390;28;20240;-83
2024/01/07 02:04:32;;;;;;;6.10;5.70;;;-1.70;63.60;;;;;;6312995;28;20263;-84
2024/01/07 02:07:36;;;;;;;5.70;5.27;;;-1.80;63.80;;;;;;6299865;28;20237;-83
2024/01/07 02:10:39;;;;;;;5.23;5.03;;;-1.90;63.60;;;;;;6299011;28;20237;-80
2024/01/07 02:13:45;;;;;;;5.20;5.00;;;-1.90;63.60;;;;;;6307253;28;20326;-82
2024/01/07 02:16:49;;;;;;;5.37;4.97;;;-2.00;63.40;;;;;;6277406;28;20256;-84
2024/01/07 02:19:52;;;;;;;5.97;5.60;;;-2.10;63.50;;;;;;6274447;28;20240;-82
2024/01/07 02:22:57;;;;;;;4.70;4.60;;;-2.10;63.60;;;;;;6303140;28;20236;-81
2024/01/07 02:26:02;;;;;;;5.33;5.13;;;-2.10;63.70;;;;;;6305883;28;20318;-83
2024/01/07 02:29:05;;;;;;;5.17;4.83;;;-2.10;64.00;;;;;;6291765;28;20244;-85
2024/01/07 02:32:08;;;;;;;5.87;5.43;;;-2.10;63.60;;;;;;6304742;28;20249;-83
2024/01/07 02:35:13;;;;;;;5.17;4.97;;;-2.10;63.30;;;;;;6312192;28;20237;-84
2024/01/07 02:38:16;;;;;;;5.27;4.87;;;-2.20;63.40;;;;;;6296341;28;20262;-85
2024/01/07 02:41:25;;;;;;;4.63;4.43;;;-2.30;63.50;;;;;;6316370;28;20334;-84
2024/01/07 02:44:28;;;;;;;4.97;4.77;;;-2.30;63.90;;;;;;6296174;28;20229;-83
2024/01/07 02:47:31;;;;;;;5.63;5.30;;;-2.40;64.20;;;;;;6312142;28;20364;-81
2024/01/07 02:50:34;;;;;;;4.93;4.50;;;-2.40;64.10;;;;;;6325364;28;20307;-83
2024/01/07 02:53:37;;;;;;;4.97;4.77;;;-2.50;64.30;;;;;;6317846;28;20278;-81
2024/01/07 02:56:42;;;;;;;4.40;4.30;;;-2.60;64.50;;;;;;6319669;28;20233;-79
2024/01/07 02:59:45;;;;;;;5.03;4.67;;;-2.60;64.00;;;;;;6320404;28;20870;-82
2024/01/07 03:02:48;;;;;;;5.20;4.93;;;-2.60;64.20;;;;;;6317190;28;20231;-81
2024/01/07 03:05:51;;;;;;;4.63;4.53;;;-2.60;64.10;;;;;;6294581;28;20374;-81
2024/01/07 03:08:55;;;;;;;4.77;4.57;;;-2.70;64.50;;;;;;6312919;28;20234;-82
2024/01/07 03:12:00;;;;;;;4.53;4.33;;;-2.80;64.70;;;;;;6305681;28;20242;-83
2024/01/07 03:15:05;;;;;;;5.13;4.93;;;-2.80;64.70;;;;;;6311828;28;20731;-83
2024/01/07 03:18:09;;;;;;;4.87;4.77;;;-2.80;64.60;;;;;;6315674;28;20240;-81
2024/01/07 03:21:18;;;;;;;5.40;5.07;;;-2.80;64.20;;;;;;6310423;28;20474;-78
2024/01/07 03:24:21;;;;;;;4.70;4.60;;;-2.80;64.60;;;;;;6301250;28;20242;-81
2024/01/07 03:27:25;;;;;;;5.77;4.93;;;-2.80;64.80;;;;;;6282686;28;20252;-82
2024/01/07 03:30:29;;;;;;;4.50;4.40;;;-2.90;64.80;;;;;;6299195;28;20244;-79
2024/01/07 03:33:32;;;;;;;6.23;5.63;;;-2.90;64.50;;;;;;6302060;28;20256;-81
2024/01/07 03:36:35;;;;;;;5.53;5.13;;;-2.90;64.50;;;;;;6312219;28;20854;-83
2024/01/07 03:39:38;;;;;;;5.30;5.00;;;-2.90;64.30;;;;;;6315967;28;20233;-81
2024/01/07 03:42:43;;;;;;;4.60;4.40;;;-3.00;64.60;;;;;;6331863;28;20307;-81
2024/01/07 03:45:46;;;;;;;5.23;4.93;;;-3.00;64.50;;;;;;6292819;28;20240;-83
2024/01/07 03:48:49;;;;;;;5.27;5.10;;;-3.00;64.70;;;;;;6315915;28;20256;-81
2024/01/07 03:51:53;;;;;;;4.40;4.30;;;-3.00;64.60;;;;;;6298705;28;20229;-79
2024/01/07 03:54:56;;;;;;;5.50;5.30;;;-3.00;64.50;;;;;;6309794;28;20233;-82
2024/01/07 03:58:01;;;;;;;5.33;5.00;;;-3.00;64.80;;;;;;6296859;28;20750;-81
2024/01/07 04:01:04;;;;;;;4.70;4.60;;;-3.10;64.60;;;;;;6309435;28;20258;-81
2024/01/07 04:04:08;;;;;;;5.00;4.80;;;-3.10;64.80;;;;;;6297194;28;20232;-80
2024/01/07 04:07:11;;;;;;;4.97;4.77;;;-3.20;64.80;;;;;;6309423;28;20249;-82
2024/01/07 04:10:14;;;;;;;5.00;4.83;;;-3.10;64.10;;;;;;6305533;28;20229;-85
2024/01/07 04:13:19;;;;;;;5.50;5.30;;;-3.10;64.20;;;;;;6302930;28;20257;-83
2024/01/07 04:16:22;;;;;;;5.60;5.30;;;-3.10;63.90;;;;;;6312497;28;20746;-79
2024/01/07 04:19:25;;;;;;;5.13;4.87;;;-3.10;64.00;;;;;;6301608;28;20237;-82
2024/01/07 04:22:28;;;;;;;4.83;4.63;;;-3.10;64.20;;;;;;6312533;28;20239;-84
2024/01/07 04:25:31;;;;;;;4.97;4.80;;;-3.20;64.00;;;;;;6296989;28;20247;-81
2024/01/07 04:28:36;;;;;;;5.00;4.77;;;-3.20;63.80;;;;;;6299632;28;20228;-82
2024/01/07 04:31:39;;;;;;;5.33;5.13;;;-3.20;64.10;;;;;;6286924;28;20328;-81
2024/01/07 04:34:42;;;;;;;4.60;4.50;;;-3.20;64.30;;;;;;6293151;28;20362;-80
2024/01/07 04:37:49;;;;;;;4.97;4.87;;;-3.20;64.70;;;;;;6293055;28;20233;-81
2024/01/07 04:40:52;;;;;;;4.73;4.53;;;-3.20;64.20;;;;;;6291670;28;20252;-81
2024/01/07 04:43:56;;;;;;;5.10;4.80;;;-3.20;63.90;;;;;;6292289;28;20752;-80
2024/01/07 04:47:00;;;;;;;4.77;4.40;;;-3.10;64.00;;;;;;6292178;28;20233;-83
2024/01/07 04:50:04;;;;;;;5.43;5.07;;;-3.20;64.20;;;;;;6298455;28;20683;-81
2024/01/07 04:53:07;;;;;;;4.87;4.60;;;-3.20;63.90;;;;;;6290965;28;20233;-79
2024/01/07 04:56:10;;;;;;;5.03;4.80;;;-3.20;64.00;;;;;;6289526;28;20244;-80
2024/01/07 04:59:15;;;;;;;4.87;4.57;;;-3.20;64.30;;;;;;6294931;28;20229;-80
2024/01/07 05:02:18;;;;;;;4.93;4.67;;;-3.20;64.00;;;;;;6293117;28;20948;-82
2024/01/07 05:05:21;;;;;;;5.40;5.23;;;-3.20;64.30;;;;;;6291982;28;20232;-80
2024/01/07 05:08:24;;;;;;;4.60;4.50;;;-3.20;64.00;;;;;;6291405;28;25474;-83
2024/01/07 05:11:29;;;;;;;5.30;4.90;;;-3.20;63.80;;;;;;6292963;28;20353;-82
2024/01/07 05:14:33;;;;;;;5.47;5.00;;;-3.20;64.10;;;;;;6292469;28;20748;-82
2024/01/07 05:17:36;;;;;;;4.30;4.20;;;-3.30;64.30;;;;;;6290870;28;20328;-84
2024/01/07 05:20:40;;;;;;;4.87;4.67;;;-3.30;64.40;;;;;;6291020;28;21030;-81
2024/01/07 05:23:43;;;;;;;5.03;4.83;;;-3.30;64.50;;;;;;6290518;28;20297;-81
2024/01/07 05:26:46;;;;;;;5.23;5.03;;;-3.30;64.20;;;;;;6293248;28;20316;-80
2024/01/07 05:29:51;;;;;;;4.80;4.53;;;-3.20;64.50;;;;;;6290982;28;20233;-82
2024/01/07 05:32:54;;;;;;;5.10;4.80;;;-3.30;64.40;;;;;;6289197;28;20249;-79
2024/01/07 05:35:57;;;;;;;5.17;4.90;;;-3.30;64.40;;;;;;6290200;28;20240;-82
2024/01/07 05:39:01;;;;;;;5.17;4.87;;;-3.20;64.40;;;;;;6295984;28;20237;-80
2024/01/07 05:42:04;;;;;;;5.50;5.27;;;-3.20;64.70;;;;;;6292060;28;20312;-82
2024/01/07 05:45:11;;;;;;;5.10;4.90;;;-3.20;64.70;;;;;;6292553;28;20835;-83
2024/01/07 05:48:14;;;;;;;5.17;4.97;;;-3.20;64.60;;;;;;6291074;28;20328;-79
2024/01/07 05:51:18;;;;;;;5.37;4.90;;;-3.20;64.50;;;;;;6290267;28;20367;-81
2024/01/07 05:54:22;;;;;;;5.30;5.07;;;-3.20;64.50;;;;;;6291725;28;20849;-78
2024/01/07 05:57:25;;;;;;;5.77;5.37;;;-3.20;64.80;;;;;;6288892;28;20907;-82
2024/01/07 06:00:30;;;;;;;5.13;4.93;;;-3.20;64.60;;;;;;6290152;28;20244;-83
2024/01/07 06:03:38;;;;;;;5.77;5.37;;;-3.10;65.00;;;;;;6284761;28;20236;-80
2024/01/07 06:06:42;;;;;;;5.57;5.33;;;-3.10;65.10;;;;;;6295724;28;20236;-76
2024/01/07 06:09:45;;;;;;;5.53;5.33;;;-3.00;65.00;;;;;;6296914;28;20247;-81
2024/01/07 06:12:48;;;;;;;5.97;5.60;;;-3.00;64.80;;;;;;6297354;28;20237;-80
2024/01/07 06:15:53;;;;;;;5.20;4.77;;;-3.00;64.90;;;;;;6300054;28;20280;-83
2024/01/07 06:18:57;;;;;;;5.43;5.13;;;-2.90;65.00;;;;;;6291633;28;20240;-79
2024/01/07 06:22:00;;;;;;;5.70;5.37;;;-3.00;65.10;;;;;;6295539;28;20245;-81
2024/01/07 06:25:04;;;;;;;5.13;4.90;;;-2.90;65.00;;;;;;6303907;28;20237;-80
2024/01/07 06:28:11;;;;;;;5.33;5.10;;;-2.90;65.00;;;;;;6297333;28;20240;-81
2024/01/07 06:31:15;;;;;;;5.67;5.37;;;-2.90;65.10;;;;;;6298350;28;20244;-81
2024/01/07 06:34:18;;;;;;;5.40;5.07;;;-2.80;64.90;;;;;;6293630;28;20326;-79
2024/01/07 06:37:22;;;;;;;6.30;6.00;;;-2.80;65.20;;;;;;6296197;28;20310;-78
2024/01/07 06:40:25;;;;;;;5.80;5.50;;;-2.80;65.00;;;;;;6293791;28;20233;-77
2024/01/07 06:43:28;;;;;;;5.67;5.23;;;-2.80;65.10;;;;;;6293775;28;20349;-78
2024/01/07 06:46:34;;;;;;;5.63;5.23;;;-2.80;65.20;;;;;;6294909;28;20241;-76
2024/01/07 06:49:38;;;;;;;5.90;5.50;;;-2.80;65.20;;;;;;6293397;28;20236;-78
2024/01/07 06:52:41;;;;;;;6.07;5.80;;;-2.70;64.90;;;;;;6294536;28;20324;-78
2024/01/07 06:55:45;;;;;;;5.23;5.07;;;-2.70;65.00;;;;;;6295765;28;20293;-76
2024/01/07 06:58:50;;;;;;;5.57;5.27;;;-2.70;65.30;;;;;;6294847;28;20232;-79
2024/01/07 07:01:55;;;;;;;5.90;5.50;;;-2.70;65.40;;;;;;6285394;28;20322;-80
2024/01/07 07:05:00;;;;;;;5.50;5.20;;;-2.70;65.30;;;;;;6302288;28;20348;-75
2024/01/07 07:08:04;;;;;;;5.40;5.27;;;-2.60;65.40;;;;;;6303769;28;20251;-79
2024/01/07 07:11:07;;;;;;;5.70;5.40;;;-2.60;65.20;;;;;;6285669;28;20260;-79
2024/01/07 07:14:10;;;;;;;5.57;5.30;;;-2.60;65.10;;;;;;6296191;28;20256;-78
2024/01/07 07:17:14;;;;;;;5.57;5.37;;;-2.60;65.10;;;;;;6297280;28;21471;-77
2024/01/07 07:20:18;;;;;;;5.33;5.10;;;-2.60;64.40;;;;;;6297639;28;20291;-77
2024/01/07 07:23:21;;;;;;;5.17;4.97;;;-2.60;64.30;;;;;;6293428;28;20236;-79
2024/01/07 07:26:24;;;;;;;5.27;5.10;;;-2.60;64.60;;;;;;6291591;28;20240;-77
2024/01/07 07:29:27;;;;;;;4.70;4.50;;;-2.50;64.40;;;;;;6295014;28;20240;-78
2024/01/07 07:32:32;;;;;;;5.40;5.10;;;-2.50;64.30;;;;;;6291461;28;20237;-78
2024/01/07 07:35:35;;;;;;;5.00;4.80;;;-2.40;64.00;;;;;;6294759;28;20819;-78
2024/01/07 07:38:38;;;;;;;5.13;4.93;;;-2.50;63.90;;;;;;6289494;28;20247;-79
2024/01/07 07:41:41;;;;;;;5.20;4.90;;;-2.40;64.00;;;;;;6289690;28;20293;-77
2024/01/07 07:44:44;;;;;;;5.17;4.97;;;-2.40;63.70;;;;;;6293716;28;20387;-77
2024/01/07 07:47:49;;;;;;;5.30;5.10;;;-2.40;63.80;;;;;;6289214;28;20229;-77
2024/01/07 07:50:52;;;;;;;5.20;5.00;;;-2.40;63.90;;;;;;6285833;28;20247;-77
2024/01/07 07:53:55;;;;;;;5.10;4.87;;;-2.30;64.20;;;;;;6290173;28;20248;-78
2024/01/07 07:56:58;;;;;;;4.97;4.77;;;-2.30;64.30;;;;;;6291359;28;20774;-78
2024/01/07 08:00:02;;;;;;;5.40;5.20;;;-2.30;64.00;;;;;;6292129;28;20236;-78
2024/01/07 08:03:08;;;;;;;5.87;5.50;;;-2.30;64.00;;;;;;6291929;28;20347;-78
2024/01/07 08:06:11;;;;;;;5.43;5.23;;;-2.20;63.90;;;;;;6289997;28;20259;-78
2024/01/07 08:09:14;;;;;;;5.67;5.43;;;-2.20;64.00;;;;;;6292984;28;20320;-77
2024/01/07 08:12:18;;;;;;;4.90;4.70;;;-2.20;63.90;;;;;;6302823;28;20781;-78
2024/01/07 08:15:21;;;;;;;5.17;4.80;;;-2.20;64.10;;;;;;6296157;28;20280;-77
2024/01/07 08:18:26;;;;;;;5.20;5.00;;;-2.20;63.80;;;;;;6304509;28;21024;-76
2024/01/07 08:21:29;;;;;;;5.30;5.07;;;-2.20;64.00;;;;;;6293324;28;20226;-78
2024/01/07 08:24:32;;;;;;;5.33;5.03;;;-2.10;64.20;;;;;;6292901;28;20765;-77
2024/01/07 08:27:37;;;;;;;5.30;5.10;;;-2.10;64.00;;;;;;6295023;28;20389;-78
2024/01/07 08:30:40;;;;;;;5.50;5.20;;;-2.10;64.00;;;;;;6308441;28;20327;-79
2024/01/07 08:33:45;;;;;;;6.63;6.23;;;-2.00;64.00;;;;;;6298019;28;20224;-79
2024/01/07 08:36:49;;;;;;;5.93;5.53;;;-2.00;64.20;;;;;;6292008;28;20244;-79
2024/01/07 08:40:21;;;;;;;5.93;5.60;;;-2.00;64.10;;;;;;6297102;28;20253;-76
2024/01/07 08:43:24;;;;;;;5.47;5.20;;;-1.90;64.10;;;;;;6288235;28;20321;-79
2024/01/07 08:46:27;;;;;;;6.37;5.83;;;-1.90;64.20;;;;;;6297413;28;20225;-79
2024/01/07 08:49:33;;;;;;;5.73;5.33;;;-1.80;64.10;;;;;;6305784;28;20301;-82
2024/01/07 08:52:37;;;;;;;5.30;5.10;;;-1.80;63.90;;;;;;6299896;28;20244;-79
2024/01/07 08:55:40;;;;;;;5.60;5.30;;;-1.80;64.00;;;;;;6307919;28;20271;-78
2024/01/07 08:58:43;;;;;;;5.90;5.70;;;-1.70;64.20;;;;;;6301530;28;20696;-78
2024/01/07 09:01:46;;;;;;;6.93;6.40;;;-1.70;64.20;;;;;;6300677;28;20240;-78
2024/01/07 09:04:51;;;;;;;6.00;5.50;;;-1.60;64.10;;;;;;6302523;28;20326;-78
2024/01/07 09:07:54;;;;;;;6.40;6.00;;;-1.50;64.10;;;;;;6299398;28;20792;-77
2024/01/07 09:11:00;;;;;;;5.83;5.53;;;-1.50;64.20;;;;;;6306272;28;20750;-77
2024/01/07 09:14:03;;;;;;;5.90;5.50;;;-1.50;64.20;;;;;;6307257;28;20249;-80
2024/01/07 09:17:08;;;;;;;6.10;5.70;;;-1.40;64.10;;;;;;6304037;28;20310;-78
2024/01/07 09:20:14;;;;;;;6.20;5.80;;;-1.40;64.30;;;;;;6298046;28;20233;-79
2024/01/07 09:23:17;;;;;;;6.03;5.70;;;-1.30;64.40;;;;;;6309116;28;20772;-77
2024/01/07 09:26:20;;;;;;;5.60;5.30;;;-1.30;64.10;;;;;;6302238;28;20236;-79
2024/01/07 09:29:23;;;;;;;6.13;5.83;;;-1.30;63.90;;;;;;6301515;28;20851;-78
2024/01/07 09:32:26;;;;;;;6.30;6.00;;;-1.30;64.10;;;;;;6302114;28;20285;-80
2024/01/07 09:35:31;;;;;;;6.50;6.20;;;-1.30;64.10;;;;;;6294302;28;20272;-79
2024/01/07 09:38:34;;;;;;;6.60;6.20;;;-1.10;64.10;;;;;;6306259;28;20231;-78
2024/01/07 09:41:37;;;;;;;6.57;6.27;;;-1.10;64.00;;;;;;6303920;28;20229;-79
2024/01/07 09:44:40;;;;;;;6.87;6.37;;;-1.10;64.30;;;;;;6310127;28;20247;-79
2024/01/07 09:47:45;;;;;;;6.90;6.50;;;-1.10;64.60;;;;;;6307503;28;20232;-76
2024/01/07 09:50:51;;;;;;;7.57;7.07;;;-1.10;65.00;;;;;;6305960;28;20267;-81
2024/01/07 09:53:59;;;;;;;7.80;7.10;;;-1.10;65.00;;;;;;6306671;28;20390;-78
2024/01/07 09:57:06;;;;;;;7.63;7.00;;;-1.10;65.00;;;;;;6305936;28;20228;-79
2024/01/07 10:00:10;;;;;;;7.10;6.67;;;-1.10;65.20;;;;;;6305481;28;20739;-79
2024/01/07 10:03:14;;;;;;;7.53;6.97;;;-1.20;65.40;;;;;;6302765;28;20263;-78
2024/01/07 10:06:21;;;;;;;7.03;6.63;;;-1.20;65.70;;;;;;6310597;28;20232;-78
2024/01/07 10:09:27;;;;;;;7.87;7.00;;;-1.10;65.70;;;;;;6312775;28;20244;-76
2024/01/07 10:12:30;;;;;;;7.27;6.70;;;-1.20;65.70;;;;;;6294002;28;20240;-76
2024/01/07 10:15:33;;;;;;;8.50;7.77;;;-1.10;65.50;;;;;;6300829;28;20323;-77
2024/01/07 10:18:37;;;;;;;8.63;7.83;;;-1.10;65.80;;;;;;6304484;28;20312;-78
2024/01/07 10:21:42;;;;;;;7.90;7.30;;;-1.10;65.90;;;;;;6304459;28;20243;-76
2024/01/07 10:24:45;;;;;;;8.20;7.37;;;-1.10;66.50;;;;;;6307587;28;20234;-79
2024/01/07 10:27:49;;;;;;;8.27;7.57;;;-1.10;66.70;;;;;;6302252;28;20315;-77
2024/01/07 10:30:53;;;;;;;7.97;7.43;;;-1.10;67.00;;;;;;6296241;28;20270;-76
2024/01/07 10:33:57;;;;;;;8.00;7.47;;;-1.10;66.80;;;;;;6317624;28;20267;-77
2024/01/07 10:37:04;;;;;;;8.23;7.70;;;-1.10;67.20;;;;;;6316864;28;20752;-78
2024/01/07 10:40:12;;;;;;;8.90;8.00;;;-1.10;67.10;;;;;;6302365;28;20725;-78
2024/01/07 10:43:17;;;;;;;8.70;7.90;;;-1.10;67.30;;;;;;6311548;28;20239;-78
2024/01/07 10:46:20;;;;;;;8.47;7.77;;;-1.10;67.50;;;;;;6310979;28;20244;-77
2024/01/07 10:49:25;;;;;;;8.60;7.80;;;-1.00;67.80;;;;;;6311240;28;20284;-79
2024/01/07 10:52:29;;;;;;;8.97;8.10;;;-1.00;67.20;;;;;;6309064;28;20849;-78
2024/01/07 10:55:36;;;;;;;8.70;8.00;;;-0.90;67.10;;;;;;6305227;28;20240;-79
2024/01/07 10:58:40;;;;;;;8.43;7.63;;;-0.90;67.40;;;;;;6309594;28;20324;-78
2024/01/07 11:01:44;;;;;;;9.77;8.87;;;-0.90;67.20;;;;;;6305067;28;20263;-79
2024/01/07 11:04:57;;;;;;;8.97;8.27;;;-0.90;67.20;;;;;;6305792;28;20285;-76
2024/01/07 11:08:08;;;;;;;9.77;9.07;;;-0.90;67.20;;;;;;6302140;28;20240;-78
2024/01/07 11:11:17;;;;;;;8.77;7.83;;;-0.90;67.30;;;;;;6312574;28;20382;-78
2024/01/07 11:14:36;;;;;;;9.00;8.30;;;-0.70;67.10;;;;;;6308952;28;20256;-79
2024/01/07 11:17:45;;;;;;;9.13;8.30;;;-0.70;67.00;;;;;;6302863;28;20222;-77
2024/01/07 11:20:49;;;;;;;9.50;8.63;;;-0.70;67.10;;;;;;6299629;28;20742;-78
2024/01/07 11:23:53;;;;;;;9.00;8.23;;;-0.70;67.20;;;;;;6304711;28;20722;-79
2024/01/07 11:27:02;;;;;;;8.10;7.60;;;-0.60;67.20;;;;;;6314416;28;20310;-79
2024/01/07 11:30:19;;;;;;;8.50;7.83;;;-0.60;67.00;;;;;;6287339;28;20241;-80
2024/01/07 11:33:32;;;;;;;9.00;8.17;;;-0.50;67.00;;;;;;6298660;28;20236;-79
2024/01/07 11:36:37;;;;;;;8.17;7.37;;;-0.50;67.20;;;;;;6304667;28;20355;-79
2024/01/07 11:39:43;;;;;;;7.37;6.83;;;-0.50;67.20;;;;;;6299452;28;21122;-80
2024/01/07 11:42:47;;;;;;;8.30;7.70;;;-0.60;67.50;;;;;;6313138;28;20233;-80
2024/01/07 11:45:51;;;;;;;8.00;7.40;;;-0.60;67.90;;;;;;6313559;28;20229;-80
2024/01/07 11:48:58;;;;;;;8.07;7.47;;;-0.50;68.00;;;;;;6308964;28;20224;-78
2024/01/07 11:52:02;;;;;;;8.70;7.60;;;-0.50;68.10;;;;;;6305999;28;20343;-77
2024/01/07 11:55:09;;;;;;;8.33;7.73;;;-0.50;68.20;;;;;;6308942;28;20232;-80
2024/01/07 11:58:12;;;;;;;8.30;7.50;;;-0.50;68.20;;;;;;6297376;28;20847;-79
2024/01/07 12:01:16;;;;;;;8.50;7.80;;;-0.50;68.20;;;;;;6308232;28;20224;-78
2024/01/07 12:04:21;;;;;;;8.20;7.70;;;-0.50;68.20;;;;;;6309912;28;20247;-77
2024/01/07 12:07:25;;;;;;;7.57;6.97;;;-0.60;68.30;;;;;;6311647;28;20728;-81
2024/01/07 12:10:29;;;;;;;7.20;6.60;;;-0.60;68.60;;;;;;6295290;28;20248;-78
2024/01/07 12:13:33;;;;;;;7.33;6.73;;;-0.50;68.60;;;;;;6312408;28;20319;-80
2024/01/07 12:16:36;;;;;;;7.30;6.90;;;-0.50;68.70;;;;;;6314316;28;20322;-77
2024/01/07 12:19:41;;;;;;;7.60;7.00;;;-0.50;69.00;;;;;;6300875;28;20233;-77
2024/01/07 12:22:44;;;;;;;7.57;6.97;;;-0.60;69.10;;;;;;6296696;28;20225;-80
2024/01/07 12:25:49;;;;;;;7.60;7.10;;;-0.60;69.20;;;;;;6299441;28;20260;-77
2024/01/07 12:28:57;;;;;;;7.90;7.30;;;-0.60;69.20;;;;;;6305495;28;20263;-78
2024/01/07 12:32:02;;;;;;;6.93;6.53;;;-0.60;69.40;;;;;;6310623;28;20236;-78
2024/01/07 12:35:08;;;;;;;7.73;7.13;;;-0.60;69.50;;;;;;6305697;28;20293;-79
2024/01/07 12:38:12;;;;;;;7.30;6.80;;;-0.50;69.60;;;;;;6305837;28;20237;-78
2024/01/07 12:41:16;;;;;;;7.13;6.73;;;-0.50;69.70;;;;;;6295888;28;20237;-80
2024/01/07 12:44:20;;;;;;;7.53;6.93;;;-0.50;69.90;;;;;;6299043;28;20389;-76
2024/01/07 12:47:23;;;;;;;6.70;6.20;;;-0.40;69.80;;;;;;6293772;28;20237;-79
2024/01/07 12:50:27;;;;;;;6.83;6.33;;;-0.40;70.00;;;;;;6296205;28;20237;-79
2024/01/07 12:53:31;;;;;;;7.23;6.80;;;-0.40;70.20;;;;;;6303194;28;20334;-79
2024/01/07 12:56:36;;;;;;;7.37;6.43;;;-0.40;70.20;;;;;;6312424;28;20243;-77
2024/01/07 12:59:39;;;;;;;6.83;6.27;;;-0.30;70.10;;;;;;6287868;28;20244;-79
2024/01/07 13:02:42;;;;;;;7.80;7.23;;;-0.30;70.10;;;;;;6307981;28;20341;-79
2024/01/07 13:05:48;;;;;;;7.30;6.87;;;-0.40;70.50;;;;;;6304887;28;20263;-78
2024/01/07 13:08:51;;;;;;;7.70;7.10;;;-0.40;70.70;;;;;;6294499;28;20225;-80
2024/01/07 13:11:57;;;;;;;8.00;7.43;;;-0.30;70.90;;;;;;6303562;28;20941;-79
2024/01/07 13:15:01;;;;;;;7.60;6.87;;;-0.40;71.10;;;;;;6297228;28;20763;-78
2024/01/07 13:18:04;;;;;;;6.80;6.30;;;-0.30;71.10;;;;;;6299805;28;20236;-78
2024/01/07 13:21:08;;;;;;;7.77;7.07;;;-0.40;71.40;;;;;;6300137;28;20252;-78
2024/01/07 13:24:11;;;;;;;7.00;6.47;;;-0.40;71.50;;;;;;6302262;28;20240;-79
2024/01/07 13:27:17;;;;;;;6.57;6.17;;;-0.40;71.90;;;;;;6296408;28;20308;-81
2024/01/07 13:30:21;;;;;;;6.77;6.37;;;-0.40;71.80;;;;;;6309727;28;20244;-80
2024/01/07 13:33:24;;;;;;;7.43;6.93;;;-0.40;72.00;;;;;;6303773;28;20847;-78
2024/01/07 13:36:27;;;;;;;7.17;6.77;;;-0.40;72.30;;;;;;6298097;28;20780;-78
2024/01/07 13:39:30;;;;;;;6.83;6.43;;;-0.40;72.20;;;;;;6308563;28;20308;-77
2024/01/07 13:42:35;;;;;;;7.60;6.93;;;-0.40;72.50;;;;;;6308896;28;20307;-81
2024/01/07 13:45:39;;;;;;;7.17;6.57;;;-0.40;72.70;;;;;;6315043;28;20236;-80
2024/01/07 13:48:43;;;;;;;7.20;6.60;;;-0.40;73.10;;;;;;6304154;28;20716;-80
2024/01/07 13:51:47;;;;;;;6.63;6.13;;;-0.30;72.90;;;;;;6302868;28;21352;-78
2024/01/07 13:54:50;;;;;;;9.00;8.10;;;-0.30;73.00;;;;;;6300876;28;20232;-80
2024/01/07 13:57:55;;;;;;;6.37;5.97;;;-0.40;73.10;;;;;;6309057;28;20857;-79
2024/01/07 14:00:58;;;;;;;6.43;6.07;;;-0.30;72.90;;;;;;6310096;28;20232;-79
2024/01/07 14:04:01;;;;;;;6.00;5.73;;;-0.30;72.70;;;;;;6297593;28;20229;-80
2024/01/07 14:07:06;;;;;;;6.90;6.50;;;-0.30;72.80;;;;;;6313746;28;20229;-77
2024/01/07 14:10:09;;;;;;;7.33;6.80;;;-0.40;73.00;;;;;;6304137;28;20258;-77
2024/01/07 14:13:14;;;;;;;6.43;6.03;;;-0.40;73.00;;;;;;6301982;28;20234;-78
2024/01/07 14:16:17;;;;;;;7.30;6.80;;;-0.40;73.30;;;;;;6298862;28;20241;-79
2024/01/07 14:19:21;;;;;;;7.50;6.80;;;-0.40;73.30;;;;;;6303975;28;20236;-79
2024/01/07 14:22:25;;;;;;;6.47;6.13;;;-0.30;73.30;;;;;;6300427;28;20235;-80
2024/01/07 14:25:28;;;;;;;6.43;5.93;;;-0.30;73.20;;;;;;6304736;28;20325;-79
2024/01/07 14:28:33;;;;;;;6.93;6.37;;;-0.30;73.30;;;;;;6310715;28;20233;-78
2024/01/07 14:31:36;;;;;;;7.20;6.70;;;-0.30;73.20;;;;;;6292592;28;20228;-79
2024/01/07 14:34:41;;;;;;;7.50;6.73;;;-0.30;73.10;;;;;;6304558;28;20240;-78
2024/01/07 14:37:44;;;;;;;6.73;6.33;;;-0.30;72.90;;;;;;6307509;28;20232;-80
2024/01/07 14:40:49;;;;;;;6.90;6.47;;;-0.30;72.90;;;;;;6307432;28;20236;-79
2024/01/07 14:43:55;;;;;;;6.83;6.50;;;-0.30;73.00;;;;;;6304698;28;20256;-79
2024/01/07 14:46:58;;;;;;;6.10;5.80;;;-0.30;73.10;;;;;;6304254;28;20717;-77
2024/01/07 14:50:02;;;;;;;6.50;6.00;;;-0.30;73.20;;;;;;6303665;28;20321;-82
2024/01/07 14:53:08;;;;;;;5.70;5.50;;;-0.30;73.10;;;;;;6303833;28;20767;-81
2024/01/07 14:56:12;;;;;;;7.67;7.17;;;-0.30;73.10;;;;;;6300423;28;20255;-79
2024/01/07 14:59:16;;;;;;;6.57;6.17;;;-0.30;73.20;;;;;;6302803;28;20286;-79
2024/01/07 15:02:20;;;;;;;5.93;5.73;;;-0.30;73.20;;;;;;6303046;28;20249;-80
2024/01/07 15:05:24;;;;;;;6.10;5.80;;;-0.30;73.00;;;;;;6309430;28;20708;-78
2024/01/07 15:08:27;;;;;;;6.57;6.27;;;-0.30;73.00;;;;;;6309099;28;20229;-81
2024/01/07 15:11:30;;;;;;;5.90;5.70;;;-0.30;73.00;;;;;;6306531;28;20236;-78
2024/01/07 15:14:35;;;;;;;6.20;5.93;;;-0.30;73.10;;;;;;6311722;28;20766;-78
2024/01/07 15:17:38;;;;;;;6.03;5.73;;;-0.30;73.10;;;;;;6298050;28;20256;-79
2024/01/07 15:20:41;;;;;;;6.27;5.90;;;-0.30;73.00;;;;;;6301048;28;20260;-82
2024/01/07 15:23:44;;;;;;;6.10;5.80;;;-0.30;72.80;;;;;;6301872;28;20243;-79
2024/01/07 15:26:47;;;;;;;6.57;6.00;;;-0.30;72.90;;;;;;6308953;28;20255;-79
2024/01/07 15:29:52;;;;;;;6.47;6.17;;;-0.30;72.90;;;;;;6298693;28;20645;-78
2024/01/07 15:32:55;;;;;;;6.57;6.27;;;-0.40;73.00;;;;;;6312643;28;20640;-79
2024/01/07 15:35:58;;;;;;;8.67;7.37;;;-0.40;73.10;;;;;;6288817;28;20370;-80
2024/01/07 15:39:02;;;;;;;7.07;6.77;;;-0.40;73.30;;;;;;6287745;28;20225;-77
2024/01/07 15:42:05;;;;;;;7.33;6.80;;;-0.40;72.70;;;;;;6300388;28;20249;-78
2024/01/07 15:45:12;;;;;;;6.97;6.37;;;-0.40;72.10;;;;;;6295699;28;20868;-78
2024/01/07 15:48:15;;;;;;;6.03;5.73;;;-0.50;70.70;;;;;;6294726;28;20233;-80
2024/01/07 15:51:18;;;;;;;6.77;6.37;;;-0.50;68.40;;;;;;6298903;28;20240;-80
2024/01/07 15:54:22;;;;;;;6.87;6.37;;;-0.60;68.20;;;;;;6299133;28;20269;-78
2024/01/07 15:57:25;;;;;;;7.10;6.60;;;-0.60;67.50;;;;;;6305415;28;20293;-77
2024/01/07 16:00:29;;;;;;;6.90;6.53;;;-0.60;66.70;;;;;;6307297;28;20256;-77